createdAt,value
2023-05-15T00:02:09.308Z,3.53
2023-05-15T00:04:36.002Z,3.23
2023-05-15T00:07:02.766Z,3.50
2023-05-15T00:09:29.353Z,3.10
2023-05-15T00:11:56.048Z,4.10
2023-05-15T00:14:22.741Z,3.33
2023-05-15T00:16:49.417Z,4.27
2023-05-15T00:19:16.694Z,3.23
2023-05-15T00:21:43.307Z,3.53
2023-05-15T00:24:09.876Z,3.53
2023-05-15T00:26:37.069Z,3.17
2023-05-15T00:29:03.632Z,3.73
2023-05-15T00:31:30.271Z,3.70
2023-05-15T00:33:57.639Z,3.10
2023-05-15T00:36:25.989Z,3.77
2023-05-15T00:38:52.720Z,4.27
2023-05-15T00:41:22.536Z,3.77
2023-05-15T00:43:50.906Z,3.83
2023-05-15T00:46:17.697Z,3.47
2023-05-15T00:48:44.725Z,4.73
2023-05-15T00:51:12.223Z,3.97
2023-05-15T00:53:39.844Z,4.20
2023-05-15T00:56:09.357Z,3.63
2023-05-15T00:58:36.840Z,4.00
2023-05-15T01:01:04.209Z,4.50
2023-05-15T01:03:31.881Z,4.40
2023-05-15T01:05:58.465Z,4.20
2023-05-15T01:08:43.978Z,4.30
2023-05-15T01:11:12.929Z,4.07
2023-05-15T01:13:39.975Z,4.23
2023-05-15T01:16:07.949Z,4.27
2023-05-15T01:18:35.174Z,4.80
2023-05-15T01:21:01.925Z,4.13
2023-05-15T01:24:06.412Z,4.37
2023-05-15T01:29:30.940Z,3.80
2023-05-15T01:32:02.584Z,3.93
2023-05-15T01:34:34.566Z,4.03
2023-05-15T01:37:03.512Z,4.10
2023-05-15T01:39:33.818Z,3.67
2023-05-15T01:42:08.229Z,3.97
2023-05-15T01:44:38.196Z,3.93
2023-05-15T01:47:13.944Z,3.13
2023-05-15T01:49:43.038Z,4.10
2023-05-15T01:52:33.336Z,3.67
2023-05-15T01:55:02.031Z,3.93
2023-05-15T01:57:31.096Z,4.37
2023-05-15T01:59:58.899Z,3.97
2023-05-15T02:02:28.293Z,3.07
2023-05-15T02:04:56.313Z,3.63
2023-05-15T02:07:23.826Z,3.93
2023-05-15T02:09:52.783Z,3.63
2023-05-15T02:12:20.909Z,3.70
2023-05-15T02:14:49.767Z,3.93
2023-05-15T02:17:16.733Z,4.40
2023-05-15T02:19:43.235Z,3.67
2023-05-15T02:22:10.440Z,4.27
2023-05-15T02:24:36.952Z,4.30
2023-05-15T02:27:27.140Z,3.77
2023-05-15T02:30:12.276Z,4.33
2023-05-15T02:32:57.647Z,4.40
2023-05-15T02:35:32.484Z,3.83
2023-05-15T02:38:02.773Z,4.00
2023-05-15T02:40:31.661Z,4.40
2023-05-15T02:42:58.782Z,4.17
2023-05-15T02:45:26.369Z,3.73
2023-05-15T02:47:53.644Z,4.03
2023-05-15T02:50:20.781Z,3.57
2023-05-15T02:52:47.352Z,4.20
2023-05-15T02:55:13.978Z,3.87
2023-05-15T02:57:40.552Z,3.83
2023-05-15T03:00:09.315Z,3.93
2023-05-15T03:02:36.296Z,3.53
2023-05-15T03:05:02.999Z,4.63
2023-05-15T03:07:29.574Z,4.13
2023-05-15T03:09:56.282Z,3.93
2023-05-15T03:12:22.896Z,4.27
2023-05-15T03:14:49.534Z,4.33
2023-05-15T03:17:16.380Z,4.40
2023-05-15T03:19:43.255Z,3.93
2023-05-15T03:22:09.790Z,4.03
2023-05-15T03:24:36.384Z,4.37
2023-05-15T03:27:03.134Z,4.23
2023-05-15T03:29:29.815Z,3.87
2023-05-15T03:31:56.444Z,3.30
2023-05-15T03:34:23.243Z,4.10
2023-05-15T03:36:49.912Z,4.43
2023-05-15T03:39:16.445Z,4.60
2023-05-15T03:41:43.122Z,4.97
2023-05-15T03:44:09.682Z,4.10
2023-05-15T03:46:36.340Z,4.10
2023-05-15T03:49:03.028Z,4.07
2023-05-15T03:51:29.768Z,4.07
2023-05-15T03:53:56.531Z,5.30
2023-05-15T03:56:23.603Z,4.60
2023-05-15T03:58:50.194Z,3.90
2023-05-15T04:01:16.774Z,3.93
2023-05-15T04:03:43.440Z,4.60
2023-05-15T04:06:10.050Z,4.13
2023-05-15T04:08:36.628Z,5.47
2023-05-15T04:11:03.324Z,4.47
2023-05-15T04:13:29.881Z,4.67
2023-05-15T04:15:56.497Z,3.70
2023-05-15T04:18:23.131Z,4.20
2023-05-15T04:20:49.744Z,3.97
2023-05-15T04:23:16.454Z,3.07
2023-05-15T04:25:46.579Z,3.47
2023-05-15T04:28:14.226Z,4.13
2023-05-15T04:30:41.373Z,3.87
2023-05-15T04:33:08.479Z,4.10
2023-05-15T04:35:35.110Z,3.40
2023-05-15T04:38:02.019Z,4.30
2023-05-15T04:40:28.817Z,3.73
2023-05-15T04:42:55.507Z,3.77
2023-05-15T04:45:22.000Z,3.23
2023-05-15T04:47:48.633Z,3.90
2023-05-15T04:50:15.431Z,3.60
2023-05-15T04:52:43.246Z,3.47
2023-05-15T04:55:10.110Z,3.83
2023-05-15T04:57:36.676Z,4.43
2023-05-15T05:00:06.118Z,3.83
2023-05-15T05:02:32.736Z,3.63
2023-05-15T05:04:59.356Z,3.60
2023-05-15T05:07:25.910Z,3.47
2023-05-15T05:09:52.597Z,3.67
2023-05-15T05:12:19.153Z,3.70
2023-05-15T05:14:45.814Z,3.57
2023-05-15T05:17:12.533Z,3.30
2023-05-15T05:19:39.108Z,3.17
2023-05-15T05:22:06.106Z,3.37
2023-05-15T05:24:32.873Z,2.80
2023-05-15T05:27:00.355Z,3.63
2023-05-15T05:29:27.017Z,2.97
2023-05-15T05:31:53.867Z,2.70
2023-05-15T05:34:20.671Z,2.67
2023-05-15T05:36:47.336Z,3.07
2023-05-15T05:39:14.641Z,2.80
2023-05-15T05:41:41.366Z,2.70
2023-05-15T05:44:08.070Z,2.37
2023-05-15T05:46:34.919Z,2.90
2023-05-15T05:49:01.743Z,2.70
2023-05-15T05:51:28.347Z,2.80
2023-05-15T05:53:55.013Z,2.33
2023-05-15T05:56:22.949Z,2.70
2023-05-15T05:58:49.653Z,2.43
2023-05-15T06:01:16.576Z,2.87
2023-05-15T06:03:43.851Z,2.07
2023-05-15T06:06:10.750Z,2.55
2023-05-15T06:08:37.334Z,2.47
2023-05-15T06:11:05.599Z,2.53
2023-05-15T06:13:32.286Z,2.10
2023-05-15T06:15:58.870Z,2.38
2023-05-15T06:18:25.633Z,2.50
2023-05-15T06:20:53.542Z,2.30
2023-05-15T06:23:20.422Z,2.40
2023-05-15T06:25:47.938Z,3.03
2023-05-15T06:28:14.495Z,2.25
2023-05-15T06:30:41.090Z,2.47
2023-05-15T06:33:07.874Z,2.85
2023-05-15T06:35:34.631Z,2.67
2023-05-15T06:38:02.004Z,2.10
2023-05-15T06:40:28.724Z,2.28
2023-05-15T06:42:55.736Z,2.03
2023-05-15T06:45:22.682Z,2.97
2023-05-15T06:47:49.398Z,2.47
2023-05-15T06:50:16.155Z,2.30
2023-05-15T06:52:42.791Z,2.40
2023-05-15T06:55:09.564Z,2.50
2023-05-15T06:57:36.165Z,3.90
2023-05-15T07:00:02.786Z,2.78
2023-05-15T07:02:29.428Z,2.30
2023-05-15T07:04:56.444Z,2.55
2023-05-15T07:07:23.025Z,2.47
2023-05-15T07:09:50.457Z,2.33
2023-05-15T07:12:17.028Z,2.50
2023-05-15T07:14:43.586Z,2.42
2023-05-15T07:17:10.286Z,2.40
2023-05-15T07:19:37.043Z,2.50
2023-05-15T07:22:03.804Z,2.65
2023-05-15T07:24:30.810Z,3.33
2023-05-15T07:26:59.169Z,2.50
2023-05-15T07:29:26.502Z,2.88
2023-05-15T07:31:53.772Z,2.17
2023-05-15T07:34:20.947Z,2.58
2023-05-15T07:36:47.644Z,2.65
2023-05-15T07:39:14.326Z,2.83
2023-05-15T07:41:40.961Z,2.83
2023-05-15T07:44:07.784Z,2.25
2023-05-15T07:46:35.508Z,2.47
2023-05-15T07:49:02.307Z,2.80
2023-05-15T07:51:29.308Z,2.20
2023-05-15T07:53:55.977Z,2.28
2023-05-15T07:56:23.465Z,2.53
2023-05-15T07:58:50.066Z,2.72
2023-05-15T08:01:16.895Z,2.65
2023-05-15T08:03:44.364Z,2.53
2023-05-15T08:06:11.124Z,2.30
2023-05-15T08:08:37.795Z,2.70
2023-05-15T08:11:04.512Z,2.28
2023-05-15T08:13:31.143Z,2.20
2023-05-15T08:15:57.790Z,2.67
2023-05-15T08:18:24.441Z,2.17
2023-05-15T08:20:52.467Z,2.38
2023-05-15T08:23:19.196Z,1.92
2023-05-15T08:25:45.958Z,2.08
2023-05-15T08:28:12.700Z,2.28
2023-05-15T08:30:39.366Z,2.58
2023-05-15T08:33:06.124Z,2.25
2023-05-15T08:35:33.025Z,2.50
2023-05-15T08:37:59.741Z,2.53
2023-05-15T08:40:38.500Z,2.45
2023-05-15T08:43:17.690Z,2.88
2023-05-15T08:45:44.537Z,2.55
2023-05-15T08:48:14.495Z,2.28
2023-05-15T08:50:43.687Z,2.63
2023-05-15T08:53:14.200Z,2.50
2023-05-15T08:55:41.959Z,2.22
2023-05-15T08:58:10.024Z,2.22
2023-05-15T09:00:38.000Z,2.30
2023-05-15T09:03:05.970Z,2.70
2023-05-15T09:05:33.203Z,2.67
2023-05-15T09:08:04.325Z,2.50
2023-05-15T09:10:32.037Z,1.98
2023-05-15T09:13:02.001Z,2.58
2023-05-15T09:15:30.763Z,2.05
2023-05-15T09:17:58.480Z,3.33
2023-05-15T09:20:31.339Z,1.90
2023-05-15T09:23:00.061Z,1.92
2023-05-15T09:25:33.528Z,2.35
2023-05-15T09:28:01.974Z,1.90
2023-05-15T09:30:31.263Z,2.33
2023-05-15T09:33:04.267Z,2.28
2023-05-15T09:35:35.466Z,2.08
2023-05-15T09:38:06.189Z,2.20
2023-05-15T09:40:32.856Z,1.80
2023-05-15T09:43:00.495Z,1.48
2023-05-15T09:45:30.234Z,1.92
2023-05-15T09:48:00.946Z,1.60
2023-05-15T09:50:38.754Z,2.33
2023-05-15T09:53:05.967Z,1.85
2023-05-15T09:55:35.303Z,1.55
2023-05-15T09:58:06.926Z,1.38
2023-05-15T10:00:34.517Z,2.15
2023-05-15T10:03:03.545Z,1.92
2023-05-15T10:05:42.593Z,2.10
2023-05-15T10:08:09.982Z,2.63
2023-05-15T10:10:36.724Z,2.03
2023-05-15T10:13:05.914Z,2.30
2023-05-15T10:15:33.287Z,2.10
2023-05-15T10:18:00.786Z,2.33
2023-05-15T10:20:27.625Z,2.13
2023-05-15T10:22:56.618Z,2.22
2023-05-15T10:25:42.384Z,2.08
2023-05-15T10:28:10.977Z,2.25
2023-05-15T10:30:40.488Z,2.15
2023-05-15T10:33:08.268Z,1.98
2023-05-15T10:35:36.537Z,2.55
2023-05-15T10:38:05.647Z,1.83
2023-05-15T10:40:34.085Z,2.00
2023-05-15T10:43:03.765Z,1.90
2023-05-15T10:45:31.892Z,1.60
2023-05-15T10:48:02.131Z,1.88
2023-05-15T10:50:28.982Z,1.95
2023-05-15T10:52:56.177Z,1.92
2023-05-15T10:55:23.554Z,2.13
2023-05-15T10:57:50.619Z,2.15
2023-05-15T11:00:23.432Z,2.10
2023-05-15T11:02:53.964Z,2.30
2023-05-15T11:05:20.923Z,2.33
2023-05-15T11:08:15.637Z,2.05
2023-05-15T11:10:42.362Z,2.60
2023-05-15T11:13:09.176Z,2.38
2023-05-15T11:15:44.064Z,1.95
2023-05-15T11:18:10.871Z,2.53
2023-05-15T11:20:49.695Z,2.17
2023-05-15T11:23:16.526Z,2.42
2023-05-15T11:25:43.151Z,2.00
2023-05-15T11:28:22.395Z,2.17
2023-05-15T11:30:52.188Z,2.00
2023-05-15T11:33:20.882Z,1.92
2023-05-15T11:35:48.370Z,1.92
2023-05-15T11:38:24.615Z,1.88
2023-05-15T11:41:03.201Z,1.67
2023-05-15T11:43:35.407Z,2.05
2023-05-15T11:46:08.381Z,2.20
2023-05-15T11:48:41.054Z,2.10
2023-05-15T11:51:20.066Z,2.03
2023-05-15T11:53:47.186Z,1.95
2023-05-15T11:56:25.069Z,1.92
2023-05-15T11:58:57.229Z,2.38
2023-05-15T12:01:24.193Z,1.88
2023-05-15T12:03:52.449Z,1.67
2023-05-15T12:06:19.480Z,1.80
2023-05-15T12:08:52.503Z,2.75
2023-05-15T12:11:23.598Z,1.98
2023-05-15T12:13:54.691Z,2.20
2023-05-15T12:16:26.610Z,2.15
2023-05-15T12:18:53.846Z,2.55
2023-05-15T12:21:21.055Z,2.50
2023-05-15T12:24:07.165Z,1.98
2023-05-15T12:26:36.098Z,1.98
2023-05-15T12:29:04.012Z,2.50
2023-05-15T12:31:30.928Z,2.78
2023-05-15T12:33:57.845Z,2.33
2023-05-15T12:36:29.853Z,2.33
2023-05-15T12:38:57.181Z,2.30
2023-05-15T12:41:30.122Z,2.22
2023-05-15T12:43:56.716Z,1.83
2023-05-15T12:46:25.632Z,2.17
2023-05-15T12:48:52.377Z,2.13
2023-05-15T12:51:19.008Z,2.60
2023-05-15T12:53:48.004Z,2.35
2023-05-15T12:56:17.669Z,2.25
2023-05-15T12:58:44.445Z,2.83
2023-05-15T13:01:11.199Z,2.33
2023-05-15T13:03:38.664Z,2.35
2023-05-15T13:06:07.231Z,2.17
2023-05-15T13:08:40.596Z,1.77
2023-05-15T13:11:12.433Z,2.17
2023-05-15T13:13:49.724Z,2.03
2023-05-15T13:16:29.831Z,2.03
2023-05-15T13:19:00.598Z,2.15
2023-05-15T13:21:27.380Z,2.55
2023-05-15T13:23:54.187Z,2.58
2023-05-15T13:26:20.967Z,2.70
2023-05-15T13:28:47.627Z,2.50
2023-05-15T13:31:14.577Z,2.35
2023-05-15T13:33:41.898Z,2.30
2023-05-15T13:38:52.902Z,1.83
2023-05-15T13:41:19.507Z,2.08
2023-05-15T13:43:47.943Z,1.80
2023-05-15T13:46:14.669Z,2.22
2023-05-15T13:48:41.288Z,2.42
2023-05-15T13:51:07.967Z,2.35
2023-05-15T13:53:34.619Z,2.50
2023-05-15T13:56:01.365Z,1.90
2023-05-15T13:58:28.315Z,2.00
2023-05-15T14:00:55.034Z,2.05
2023-05-15T14:03:21.834Z,1.95
2023-05-15T14:05:48.437Z,2.38
2023-05-15T14:08:15.977Z,4.07
2023-05-15T14:10:42.592Z,2.00
2023-05-15T14:13:09.933Z,2.17
2023-05-15T14:15:36.726Z,2.45
2023-05-15T14:18:03.358Z,1.95
2023-05-15T14:20:30.466Z,2.10
2023-05-15T14:22:57.112Z,2.63
2023-05-15T14:25:24.580Z,2.30
2023-05-15T14:27:51.477Z,2.00
2023-05-15T14:30:18.763Z,1.95
2023-05-15T14:32:45.449Z,2.33
2023-05-15T14:35:12.127Z,1.60
2023-05-15T14:37:39.066Z,2.53
2023-05-15T14:40:07.067Z,2.30
2023-05-15T14:42:33.873Z,1.83
2023-05-15T14:45:00.562Z,1.92
2023-05-15T14:47:28.668Z,2.53
2023-05-15T14:49:55.691Z,1.70
2023-05-15T14:52:22.598Z,2.13
2023-05-15T14:55:00.693Z,2.30
2023-05-15T14:57:35.037Z,2.00
2023-05-15T15:00:02.005Z,1.80
2023-05-15T15:02:29.042Z,2.30
2023-05-15T15:04:55.983Z,1.92
2023-05-15T15:07:22.886Z,1.73
2023-05-15T15:09:49.721Z,2.65
2023-05-15T15:12:16.548Z,1.80
2023-05-15T15:14:43.185Z,2.25
2023-05-15T15:17:09.876Z,2.05
2023-05-15T15:19:36.537Z,2.30
2023-05-15T15:22:03.292Z,2.22
2023-05-15T15:24:30.146Z,2.67
2023-05-15T15:26:56.856Z,1.95
2023-05-15T15:29:23.554Z,2.33
2023-05-15T15:31:50.478Z,2.67
2023-05-15T15:34:17.291Z,2.10
2023-05-15T15:36:45.540Z,2.00
2023-05-15T15:39:13.233Z,2.90
2023-05-15T15:41:40.095Z,2.58
2023-05-15T15:44:06.896Z,2.25
2023-05-15T15:46:33.690Z,2.35
2023-05-15T15:49:00.570Z,2.35
2023-05-15T15:51:27.241Z,2.13
2023-05-15T15:53:54.027Z,2.30
2023-05-15T15:56:21.504Z,1.92
2023-05-15T15:58:48.195Z,2.20
2023-05-15T16:01:15.234Z,2.00
2023-05-15T16:03:44.872Z,2.40
2023-05-15T16:06:11.532Z,2.13
2023-05-15T16:08:38.208Z,2.10
2023-05-15T16:11:04.890Z,1.80
2023-05-15T16:13:31.547Z,2.83
2023-05-15T16:15:58.337Z,2.15
2023-05-15T16:18:25.104Z,2.20
2023-05-15T16:20:51.742Z,1.90
2023-05-15T16:23:19.928Z,3.03
2023-05-15T16:25:46.692Z,2.72
2023-05-15T16:28:13.886Z,2.22
2023-05-15T16:30:48.672Z,2.08
2023-05-15T16:33:17.803Z,2.20
2023-05-15T16:35:44.635Z,2.08
2023-05-15T16:38:11.531Z,2.47
2023-05-15T16:40:38.098Z,2.25
2023-05-15T16:43:05.129Z,2.55
2023-05-15T16:45:31.788Z,2.22
2023-05-15T16:47:58.421Z,2.00
2023-05-15T16:50:25.368Z,2.28
2023-05-15T16:52:52.134Z,2.15
2023-05-15T16:55:19.112Z,2.08
2023-05-15T16:57:46.795Z,1.77
2023-05-15T17:00:14.631Z,3.13
2023-05-15T17:02:44.470Z,2.03
2023-05-15T17:05:11.843Z,2.22
2023-05-15T17:07:38.910Z,1.63
2023-05-15T17:10:06.876Z,1.73
2023-05-15T17:12:34.384Z,2.25
2023-05-15T17:15:01.072Z,1.60
2023-05-15T17:17:28.294Z,1.92
2023-05-15T17:19:55.887Z,1.92
2023-05-15T17:22:23.196Z,1.70
2023-05-15T17:24:52.229Z,1.60
2023-05-15T17:27:19.515Z,1.40
2023-05-15T17:29:47.026Z,2.28
2023-05-15T17:32:14.020Z,1.50
2023-05-15T17:34:40.867Z,2.22
2023-05-15T17:37:08.793Z,1.52
2023-05-15T17:39:42.562Z,2.32
2023-05-15T17:42:09.439Z,2.50
2023-05-15T17:44:36.315Z,2.20
2023-05-15T17:47:02.970Z,2.05
2023-05-15T17:49:30.412Z,2.03
2023-05-15T17:51:57.335Z,2.17
2023-05-15T17:54:24.178Z,2.13
2023-05-15T17:56:50.813Z,2.03
2023-05-15T17:59:17.445Z,2.28
2023-05-15T18:01:44.482Z,2.10
2023-05-15T18:04:11.441Z,2.28
2023-05-15T18:06:38.342Z,2.30
2023-05-15T18:09:05.222Z,2.35
2023-05-15T18:11:32.174Z,2.05
2023-05-15T18:13:58.833Z,2.40
2023-05-15T18:16:25.807Z,2.65
2023-05-15T18:18:52.779Z,2.40
2023-05-15T18:21:19.460Z,3.13
2023-05-15T18:23:46.309Z,2.55
2023-05-15T18:26:13.040Z,2.85
2023-05-15T18:28:39.835Z,2.33
2023-05-15T18:31:06.805Z,2.42
2023-05-15T18:33:34.341Z,2.05
2023-05-15T18:36:01.205Z,2.30
2023-05-15T18:38:28.270Z,2.05
2023-05-15T18:40:54.950Z,2.45
2023-05-15T18:43:21.882Z,2.00
2023-05-15T18:45:48.647Z,1.70
2023-05-15T18:48:15.328Z,1.73
2023-05-15T18:50:42.175Z,1.75
2023-05-15T18:53:08.814Z,1.60
2023-05-15T18:55:35.471Z,2.42
2023-05-15T18:58:02.086Z,1.92
2023-05-15T19:00:37.846Z,2.40
2023-05-15T19:03:06.106Z,2.03
2023-05-15T19:05:34.399Z,2.17
2023-05-15T19:08:01.913Z,2.30
2023-05-15T19:10:29.817Z,1.93
2023-05-15T19:12:57.470Z,2.08
2023-05-15T19:15:25.251Z,2.05
2023-05-15T19:17:52.108Z,2.67
2023-05-15T19:20:19.083Z,1.80
2023-05-15T19:22:46.715Z,1.98
2023-05-15T19:25:13.491Z,2.27
2023-05-15T19:27:40.476Z,2.20
2023-05-15T19:30:07.919Z,2.30
2023-05-15T19:32:34.999Z,2.43
2023-05-15T19:35:02.185Z,2.13
2023-05-15T19:37:29.181Z,2.60
2023-05-15T19:39:56.873Z,2.03
2023-05-15T19:42:23.690Z,2.40
2023-05-15T19:44:50.744Z,2.57
2023-05-15T19:47:17.440Z,2.20
2023-05-15T19:49:44.071Z,2.73
2023-05-15T19:52:10.798Z,1.87
2023-05-15T19:54:37.336Z,2.47
2023-05-15T19:57:04.064Z,2.60
2023-05-15T19:59:30.789Z,2.50
2023-05-15T20:01:57.453Z,2.50
2023-05-15T20:04:24.181Z,2.10
2023-05-15T20:06:50.827Z,2.83
2023-05-15T20:09:17.506Z,1.90
2023-05-15T20:11:45.343Z,2.00
2023-05-15T20:14:12.055Z,2.30
2023-05-15T20:16:38.725Z,2.17
2023-05-15T20:19:06.059Z,2.50
2023-05-15T20:21:32.736Z,2.10
2023-05-15T20:23:59.379Z,2.13
2023-05-15T20:26:26.326Z,1.90
2023-05-15T20:28:53.063Z,1.80
2023-05-15T20:31:19.780Z,2.00
2023-05-15T20:33:46.635Z,2.50
2023-05-15T20:36:14.327Z,2.50
2023-05-15T20:38:41.587Z,1.93
2023-05-15T20:41:08.316Z,1.60
2023-05-15T20:43:34.874Z,2.70
2023-05-15T20:46:01.798Z,2.73
2023-05-15T20:48:28.567Z,2.47
2023-05-15T20:50:56.300Z,2.70
2023-05-15T20:53:23.053Z,2.17
2023-05-15T20:55:49.825Z,2.43
2023-05-15T20:58:16.414Z,2.40
2023-05-15T21:00:43.118Z,2.13
2023-05-15T21:03:11.192Z,2.10
2023-05-15T21:05:37.887Z,2.33
2023-05-15T21:08:04.530Z,2.00
2023-05-15T21:10:31.122Z,1.73
2023-05-15T21:12:59.281Z,1.90
2023-05-15T21:15:26.322Z,2.17
2023-05-15T21:17:52.969Z,3.43
2023-05-15T21:20:19.584Z,2.37
2023-05-15T21:22:46.159Z,2.13
2023-05-15T21:25:12.794Z,1.90
2023-05-15T21:27:39.382Z,2.07
2023-05-15T21:30:06.641Z,2.57
2023-05-15T21:32:33.251Z,1.93
2023-05-15T21:34:59.816Z,1.90
2023-05-15T21:37:27.290Z,2.00
2023-05-15T21:39:54.023Z,2.40
2023-05-15T21:42:20.889Z,2.63
2023-05-15T21:44:47.427Z,2.13
2023-05-15T21:47:14.037Z,2.50
2023-05-15T21:49:40.565Z,2.10
2023-05-15T21:52:07.047Z,2.33
2023-05-15T21:54:33.559Z,1.80
2023-05-15T21:57:00.151Z,2.20
2023-05-15T21:59:26.727Z,2.00
2023-05-15T22:01:53.390Z,2.13
2023-05-15T22:04:19.966Z,2.27
2023-05-15T22:06:46.563Z,2.33
2023-05-15T22:09:13.075Z,2.23
2023-05-15T22:11:39.659Z,1.80
2023-05-15T22:14:06.423Z,2.07
2023-05-15T22:16:33.256Z,2.50
2023-05-15T22:18:59.974Z,1.97
2023-05-15T22:21:26.788Z,2.63
2023-05-15T22:23:53.372Z,1.93
2023-05-15T22:26:20.762Z,2.30
2023-05-15T22:28:47.824Z,2.37
2023-05-15T22:31:14.455Z,2.00
2023-05-15T22:33:41.018Z,3.30
2023-05-15T22:36:07.786Z,2.77
2023-05-15T22:38:34.367Z,2.10
2023-05-15T22:41:00.895Z,2.47
2023-05-15T22:43:27.478Z,2.67
2023-05-15T22:45:54.312Z,2.43
2023-05-15T22:48:21.091Z,3.03
2023-05-15T22:50:47.730Z,3.07
2023-05-15T22:53:14.397Z,2.80
2023-05-15T22:55:41.530Z,2.83
2023-05-15T22:58:08.079Z,2.73
2023-05-15T23:00:34.751Z,2.80
2023-05-15T23:03:01.529Z,2.80
2023-05-15T23:05:28.285Z,2.80
2023-05-15T23:07:55.256Z,2.90
2023-05-15T23:10:22.093Z,3.13
2023-05-15T23:12:48.648Z,2.43
2023-05-15T23:15:15.197Z,2.60
2023-05-15T23:17:41.767Z,2.73
2023-05-15T23:20:11.212Z,2.93
2023-05-15T23:22:38.742Z,3.03
2023-05-15T23:25:07.368Z,3.33
2023-05-15T23:27:34.003Z,2.80
2023-05-15T23:30:00.810Z,2.60
2023-05-15T23:32:27.363Z,3.20
2023-05-15T23:34:54.550Z,3.07
2023-05-15T23:37:21.308Z,3.17
2023-05-15T23:39:48.063Z,2.80
2023-05-15T23:42:15.152Z,2.77
2023-05-15T23:44:41.685Z,3.37
2023-05-15T23:47:08.696Z,2.73
2023-05-15T23:49:35.992Z,2.80
2023-05-15T23:52:02.663Z,3.07
2023-05-15T23:54:29.216Z,3.10
2023-05-15T23:56:55.788Z,2.97
2023-05-15T23:59:22.283Z,3.40
